createdAt,value
2023-04-16T00:00:19.306Z,47.28
2023-04-16T00:02:46.060Z,47.21
2023-04-16T00:05:13.487Z,47.33
2023-04-16T00:07:40.981Z,47.30
2023-04-16T00:10:07.794Z,47.31
2023-04-16T00:12:34.279Z,47.48
2023-04-16T00:15:00.746Z,47.47
2023-04-16T00:17:27.226Z,47.51
2023-04-16T00:19:53.704Z,47.48
2023-04-16T00:22:20.133Z,47.34
2023-04-16T00:24:46.559Z,47.44
2023-04-16T00:27:13.006Z,47.49
2023-04-16T00:29:39.392Z,47.66
2023-04-16T00:32:06.231Z,47.76
2023-04-16T00:34:32.707Z,47.65
2023-04-16T00:36:59.605Z,47.70
2023-04-16T00:39:26.369Z,47.79
2023-04-16T00:41:52.827Z,47.79
2023-04-16T00:44:19.269Z,48.11
2023-04-16T00:46:46.090Z,48.10
2023-04-16T00:49:12.666Z,47.96
2023-04-16T00:51:39.128Z,47.62
2023-04-16T00:54:06.373Z,47.75
2023-04-16T00:56:33.241Z,47.92
2023-04-16T00:58:59.673Z,48.07
2023-04-16T01:01:26.171Z,47.89
2023-04-16T01:03:52.905Z,47.75
2023-04-16T01:06:19.567Z,47.87
2023-04-16T01:08:46.325Z,47.89
2023-04-16T01:11:14.041Z,47.74
2023-04-16T01:13:40.801Z,47.83
2023-04-16T01:16:08.265Z,47.86
2023-04-16T01:18:35.079Z,47.80
2023-04-16T01:21:01.554Z,47.83
2023-04-16T01:23:27.980Z,47.85
2023-04-16T01:25:54.356Z,47.82
2023-04-16T01:28:21.150Z,47.70
2023-04-16T01:30:47.584Z,47.88
2023-04-16T01:33:14.619Z,47.73
2023-04-16T01:35:41.401Z,48.02
2023-04-16T01:38:08.594Z,48.18
2023-04-16T01:40:35.694Z,48.38
2023-04-16T01:43:02.283Z,48.28
2023-04-16T01:45:28.757Z,47.99
2023-04-16T01:47:55.548Z,47.92
2023-04-16T01:50:22.247Z,47.89
2023-04-16T01:52:48.718Z,48.21
2023-04-16T01:55:15.757Z,48.25
2023-04-16T01:57:42.210Z,48.38
2023-04-16T02:00:09.183Z,48.22
2023-04-16T02:02:36.169Z,48.25
2023-04-16T02:05:02.812Z,48.20
2023-04-16T02:07:29.258Z,48.37
2023-04-16T02:09:55.789Z,48.14
2023-04-16T02:12:22.208Z,48.42
2023-04-16T02:14:48.611Z,48.25
2023-04-16T02:17:15.628Z,48.21
2023-04-16T02:19:42.007Z,48.43
2023-04-16T02:22:08.409Z,48.53
2023-04-16T02:24:34.868Z,48.46
2023-04-16T02:27:01.452Z,48.44
2023-04-16T02:29:27.921Z,48.29
2023-04-16T02:31:54.389Z,48.24
2023-04-16T02:34:20.971Z,48.41
2023-04-16T02:36:47.397Z,48.39
2023-04-16T02:39:13.801Z,48.37
2023-04-16T02:41:40.316Z,48.36
2023-04-16T02:44:06.729Z,48.47
2023-04-16T02:46:33.099Z,48.31
2023-04-16T02:48:59.515Z,48.41
2023-04-16T02:51:26.420Z,48.44
2023-04-16T02:53:52.843Z,48.58
2023-04-16T02:56:19.250Z,48.39
2023-04-16T02:58:45.674Z,48.53
2023-04-16T03:01:12.235Z,48.26
2023-04-16T03:03:38.679Z,48.44
2023-04-16T03:06:05.125Z,48.36
2023-04-16T03:08:31.574Z,48.14
2023-04-16T03:10:58.276Z,48.34
2023-04-16T03:13:24.721Z,48.22
2023-04-16T03:15:51.347Z,48.25
2023-04-16T03:18:17.920Z,48.22
2023-04-16T03:20:44.357Z,48.37
2023-04-16T03:23:10.906Z,48.25
2023-04-16T03:25:37.394Z,48.04
2023-04-16T03:28:03.972Z,48.17
2023-04-16T03:30:30.510Z,48.36
2023-04-16T03:32:56.994Z,48.39
2023-04-16T03:35:23.543Z,48.38
2023-04-16T03:37:50.464Z,48.36
2023-04-16T03:40:16.922Z,48.42
2023-04-16T03:42:43.353Z,48.41
2023-04-16T03:45:09.920Z,48.54
2023-04-16T03:47:36.336Z,48.40
2023-04-16T03:50:02.868Z,48.52
2023-04-16T03:52:29.415Z,48.46
2023-04-16T03:54:55.816Z,48.32
2023-04-16T03:57:22.353Z,48.42
2023-04-16T03:59:48.815Z,48.35
2023-04-16T04:02:15.302Z,48.26
2023-04-16T04:04:41.868Z,48.41
2023-04-16T04:07:08.463Z,48.24
2023-04-16T04:09:34.836Z,48.32
2023-04-16T04:12:01.321Z,48.22
2023-04-16T04:14:27.762Z,48.34
2023-04-16T04:16:54.215Z,48.43
2023-04-16T04:19:20.770Z,48.17
2023-04-16T04:21:47.142Z,48.34
2023-04-16T04:24:13.554Z,48.20
2023-04-16T04:26:40.005Z,48.35
2023-04-16T04:29:06.617Z,48.21
2023-04-16T04:31:33.055Z,48.20
2023-04-16T04:33:59.471Z,48.06
2023-04-16T04:36:27.477Z,48.15
2023-04-16T04:38:53.886Z,48.00
2023-04-16T04:41:21.383Z,47.96
2023-04-16T04:43:47.809Z,48.14
2023-04-16T04:46:14.274Z,48.10
2023-04-16T04:48:40.720Z,48.03
2023-04-16T04:51:07.149Z,48.07
2023-04-16T04:53:33.573Z,48.07
2023-04-16T04:56:11.131Z,47.99
2023-04-16T04:58:38.971Z,47.93
2023-04-16T05:01:05.969Z,48.07
2023-04-16T05:03:32.530Z,48.06
2023-04-16T05:05:59.058Z,47.95
2023-04-16T05:08:25.703Z,47.87
2023-04-16T05:10:52.259Z,47.93
2023-04-16T05:13:18.798Z,47.76
2023-04-16T05:15:45.797Z,47.72
2023-04-16T05:18:12.158Z,47.99
2023-04-16T05:20:38.602Z,47.72
2023-04-16T05:23:05.050Z,48.03
2023-04-16T05:25:31.607Z,48.06
2023-04-16T05:27:57.982Z,47.90
2023-04-16T05:30:24.393Z,47.96
2023-04-16T05:32:51.716Z,47.99
2023-04-16T05:35:18.195Z,48.00
2023-04-16T05:37:44.640Z,47.97
2023-04-16T05:40:14.156Z,47.98
2023-04-16T05:42:40.638Z,48.10
2023-04-16T05:45:07.336Z,48.17
2023-04-16T05:47:33.829Z,48.24
2023-04-16T05:50:00.360Z,48.05
2023-04-16T05:52:26.784Z,47.97
2023-04-16T05:54:53.211Z,47.89
2023-04-16T05:57:19.594Z,48.04
2023-04-16T05:59:45.971Z,47.92
2023-04-16T06:02:12.475Z,48.02
2023-04-16T06:04:38.922Z,47.87
2023-04-16T06:07:05.574Z,47.83
2023-04-16T06:09:31.975Z,48.04
2023-04-16T06:11:58.571Z,48.06
2023-04-16T06:14:24.960Z,48.08
2023-04-16T06:16:51.333Z,48.14
2023-04-16T06:19:17.697Z,48.14
2023-04-16T06:21:44.161Z,48.08
2023-04-16T06:24:10.589Z,48.15
2023-04-16T06:26:37.086Z,48.04
2023-04-16T06:29:03.516Z,47.85
2023-04-16T06:31:30.384Z,48.02
2023-04-16T06:33:57.022Z,47.73
2023-04-16T06:36:23.406Z,47.84
2023-04-16T06:38:49.856Z,47.61
2023-04-16T06:41:16.336Z,47.53
2023-04-16T06:43:42.766Z,47.63
2023-04-16T06:46:09.197Z,47.69
2023-04-16T06:48:35.674Z,47.64
2023-04-16T06:51:02.113Z,47.55
2023-04-16T06:53:28.554Z,47.40
2023-04-16T06:55:54.942Z,47.48
2023-04-16T06:58:22.405Z,47.43
2023-04-16T07:00:49.196Z,47.58
2023-04-16T07:03:15.802Z,47.67
2023-04-16T07:05:42.470Z,47.65
2023-04-16T07:08:08.941Z,47.79
2023-04-16T07:10:35.444Z,47.63
2023-04-16T07:13:01.933Z,47.63
2023-04-16T07:15:28.718Z,47.64
2023-04-16T07:17:55.356Z,47.73
2023-04-16T07:20:22.002Z,47.61
2023-04-16T07:22:48.414Z,47.63
2023-04-16T07:25:14.873Z,47.80
2023-04-16T07:27:41.284Z,47.65
2023-04-16T07:30:08.179Z,47.44
2023-04-16T07:32:34.864Z,47.43
2023-04-16T07:35:01.402Z,47.41
2023-04-16T07:37:27.829Z,47.49
2023-04-16T07:39:57.453Z,47.59
2023-04-16T07:42:23.974Z,47.56
2023-04-16T07:44:50.451Z,47.41
2023-04-16T07:47:16.869Z,47.55
2023-04-16T07:49:43.299Z,47.41
2023-04-16T07:52:09.774Z,47.49
2023-04-16T07:54:36.311Z,47.53
2023-04-16T07:57:02.905Z,47.51
2023-04-16T07:59:29.651Z,47.21
2023-04-16T08:01:56.436Z,47.18
2023-04-16T08:04:25.674Z,47.45
2023-04-16T08:06:52.794Z,47.43
2023-04-16T08:09:20.405Z,47.30
2023-04-16T08:11:46.979Z,47.43
2023-04-16T08:14:13.615Z,47.31
2023-04-16T08:16:40.585Z,47.34
2023-04-16T08:19:07.080Z,47.47
2023-04-16T08:21:33.889Z,47.41
2023-04-16T08:24:00.443Z,47.39
2023-04-16T08:26:27.157Z,47.38
2023-04-16T08:28:53.530Z,47.50
2023-04-16T08:31:20.014Z,47.46
2023-04-16T08:33:46.420Z,47.42
2023-04-16T08:36:13.122Z,47.40
2023-04-16T08:38:39.604Z,47.55
2023-04-16T08:41:09.530Z,47.54
2023-04-16T08:43:37.677Z,47.51
2023-04-16T08:46:05.469Z,47.63
2023-04-16T08:48:33.388Z,47.58
2023-04-16T08:51:00.544Z,47.35
2023-04-16T08:53:35.968Z,47.21
2023-04-16T08:56:04.464Z,47.09
2023-04-16T08:58:34.500Z,46.73
2023-04-16T09:01:02.909Z,46.53
2023-04-16T09:03:36.098Z,46.38
2023-04-16T09:06:04.668Z,46.71
2023-04-16T09:08:32.278Z,46.51
2023-04-16T09:10:59.592Z,46.44
2023-04-16T09:13:27.108Z,45.17
2023-04-16T09:15:54.119Z,44.29
2023-04-16T09:18:21.630Z,44.38
2023-04-16T09:20:48.997Z,44.48
2023-04-16T09:23:15.533Z,44.99
2023-04-16T09:25:41.961Z,45.19
2023-04-16T09:28:09.178Z,45.17
2023-04-16T09:30:37.165Z,45.02
2023-04-16T09:33:22.234Z,45.09
2023-04-16T09:35:50.446Z,44.97
2023-04-16T09:38:17.103Z,44.97
2023-04-16T09:40:43.930Z,45.05
2023-04-16T09:43:11.364Z,44.95
2023-04-16T09:45:58.116Z,45.07
2023-04-16T09:48:31.503Z,44.90
2023-04-16T09:50:58.320Z,44.99
2023-04-16T09:53:29.705Z,44.90
2023-04-16T09:55:58.062Z,44.90
2023-04-16T09:58:24.854Z,45.10
2023-04-16T10:01:03.760Z,44.89
2023-04-16T10:03:33.977Z,44.97
2023-04-16T10:06:02.114Z,45.02
2023-04-16T10:08:29.088Z,45.03
2023-04-16T10:10:56.310Z,45.02
2023-04-16T10:13:22.777Z,44.92
2023-04-16T10:15:49.970Z,44.97
2023-04-16T10:18:17.457Z,44.80
2023-04-16T10:20:44.431Z,44.84
2023-04-16T10:23:11.920Z,44.83
2023-04-16T10:25:38.733Z,44.84
2023-04-16T10:28:05.429Z,45.07
2023-04-16T10:30:31.992Z,44.97
2023-04-16T10:33:00.569Z,44.94
2023-04-16T10:35:27.216Z,44.88
2023-04-16T10:37:57.099Z,44.95
2023-04-16T10:40:24.809Z,44.92
2023-04-16T10:42:53.974Z,44.75
2023-04-16T10:45:21.537Z,45.00
2023-04-16T10:47:48.078Z,44.88
2023-04-16T10:50:17.494Z,44.91
2023-04-16T10:52:44.063Z,44.93
2023-04-16T10:55:16.719Z,44.91
2023-04-16T10:57:43.213Z,44.89
2023-04-16T11:00:22.148Z,44.94
2023-04-16T11:02:52.852Z,44.99
2023-04-16T11:05:22.047Z,44.94
2023-04-16T11:07:49.880Z,44.90
2023-04-16T11:10:16.483Z,44.66
2023-04-16T11:12:52.918Z,44.89
2023-04-16T11:15:19.655Z,44.92
2023-04-16T11:17:46.784Z,44.91
2023-04-16T11:20:17.810Z,44.93
2023-04-16T11:22:47.563Z,44.94
2023-04-16T11:25:19.064Z,44.81
2023-04-16T11:27:45.470Z,44.80
2023-04-16T11:30:11.947Z,44.88
2023-04-16T11:32:38.853Z,44.89
2023-04-16T11:35:13.100Z,44.91
2023-04-16T11:37:39.545Z,44.96
2023-04-16T11:40:07.063Z,44.88
2023-04-16T11:42:37.537Z,44.83
2023-04-16T11:45:04.946Z,44.80
2023-04-16T11:47:31.708Z,44.75
2023-04-16T11:49:58.759Z,44.79
2023-04-16T11:52:36.338Z,44.68
2023-04-16T11:55:02.806Z,44.75
2023-04-16T11:57:29.967Z,44.81
2023-04-16T12:00:01.351Z,44.61
2023-04-16T12:02:39.855Z,44.68
2023-04-16T12:05:08.329Z,44.73
2023-04-16T12:07:45.935Z,44.64
2023-04-16T12:10:12.462Z,44.65
2023-04-16T12:12:38.840Z,44.45
2023-04-16T12:15:05.556Z,44.65
2023-04-16T12:20:53.403Z,44.36
2023-04-16T12:23:30.586Z,44.35
2023-04-16T12:26:02.288Z,44.49
2023-04-16T12:28:36.622Z,44.57
2023-04-16T12:31:03.608Z,44.47
2023-04-16T12:33:30.552Z,44.34
2023-04-16T12:35:57.118Z,44.16
2023-04-16T12:38:24.656Z,44.46
2023-04-16T12:40:51.493Z,44.23
2023-04-16T12:43:18.306Z,44.44
2023-04-16T12:45:44.871Z,44.33
2023-04-16T12:48:11.560Z,44.15
2023-04-16T12:50:39.688Z,44.25
2023-04-16T12:53:06.320Z,44.29
2023-04-16T12:55:32.707Z,44.34
2023-04-16T12:57:59.136Z,44.37
2023-04-16T13:00:25.616Z,44.50
2023-04-16T13:02:52.332Z,44.47
2023-04-16T13:05:19.309Z,44.33
2023-04-16T13:07:46.370Z,44.33
2023-04-16T13:10:13.397Z,44.53
2023-04-16T13:12:39.888Z,44.50
2023-04-16T13:15:06.655Z,44.29
2023-04-16T13:17:33.128Z,44.32
2023-04-16T13:19:59.506Z,44.42
2023-04-16T13:22:26.147Z,44.15
2023-04-16T13:24:52.590Z,44.24
2023-04-16T13:27:19.019Z,44.12
2023-04-16T13:29:46.205Z,44.32
2023-04-16T13:32:14.004Z,44.12
2023-04-16T13:34:40.702Z,44.14
2023-04-16T13:37:07.162Z,44.21
2023-04-16T13:39:33.761Z,44.21
2023-04-16T13:42:02.716Z,44.24
2023-04-16T13:44:29.204Z,44.25
2023-04-16T13:46:56.267Z,44.26
2023-04-16T13:49:23.480Z,44.15
2023-04-16T13:51:50.088Z,44.19
2023-04-16T13:54:16.478Z,44.10
2023-04-16T13:56:43.161Z,44.19
2023-04-16T13:59:09.735Z,43.86
2023-04-16T14:01:36.570Z,44.06
2023-04-16T14:04:06.634Z,43.99
2023-04-16T14:06:34.000Z,44.04
2023-04-16T14:09:00.490Z,44.21
2023-04-16T14:11:26.880Z,44.37
2023-04-16T14:13:53.294Z,44.21
2023-04-16T14:16:19.735Z,44.03
2023-04-16T14:18:46.179Z,44.03
2023-04-16T14:21:13.332Z,44.09
2023-04-16T14:23:39.744Z,44.09
2023-04-16T14:26:06.202Z,44.14
2023-04-16T14:28:32.689Z,44.03
2023-04-16T14:30:59.082Z,44.00
2023-04-16T14:33:25.590Z,44.04
2023-04-16T14:35:52.264Z,43.82
2023-04-16T14:38:18.636Z,43.83
2023-04-16T14:40:45.093Z,43.66
2023-04-16T14:43:11.617Z,43.88
2023-04-16T14:45:38.333Z,43.84
2023-04-16T14:48:05.309Z,43.89
2023-04-16T14:50:31.852Z,43.95
2023-04-16T14:52:58.309Z,43.83
2023-04-16T14:55:24.758Z,43.81
2023-04-16T14:57:51.366Z,43.80
2023-04-16T15:00:18.881Z,43.62
2023-04-16T15:02:46.413Z,43.92
2023-04-16T15:05:12.975Z,43.72
2023-04-16T15:07:39.550Z,43.90
2023-04-16T15:10:07.158Z,43.90
2023-04-16T15:12:33.612Z,43.92
2023-04-16T15:15:00.020Z,43.70
2023-04-16T15:17:26.786Z,43.65
2023-04-16T15:19:53.656Z,43.89
2023-04-16T15:22:20.073Z,43.92
2023-04-16T15:24:46.484Z,43.65
2023-04-16T15:27:14.708Z,43.72
2023-04-16T15:29:41.198Z,43.81
2023-04-16T15:32:07.654Z,43.65
2023-04-16T15:34:34.144Z,43.79
2023-04-16T15:37:00.635Z,43.82
2023-04-16T15:39:27.142Z,43.71
2023-04-16T15:42:01.275Z,43.68
2023-04-16T15:44:29.674Z,43.75
2023-04-16T15:46:56.468Z,43.70
2023-04-16T15:49:23.381Z,43.62
2023-04-16T15:51:49.768Z,43.51
2023-04-16T15:54:17.066Z,43.57
2023-04-16T15:56:43.690Z,43.58
2023-04-16T15:59:10.294Z,43.45
2023-04-16T16:01:37.040Z,43.60
2023-04-16T16:04:03.735Z,43.53
2023-04-16T16:06:30.384Z,43.44
2023-04-16T16:08:56.814Z,43.48
2023-04-16T16:11:23.251Z,43.45
2023-04-16T16:13:49.703Z,43.35
2023-04-16T16:16:16.181Z,43.35
2023-04-16T16:18:42.602Z,43.31
2023-04-16T16:21:08.985Z,43.29
2023-04-16T16:23:35.483Z,43.42
2023-04-16T16:26:02.108Z,43.40
2023-04-16T16:28:28.637Z,43.38
2023-04-16T16:30:55.741Z,43.26
2023-04-16T16:33:22.509Z,43.15
2023-04-16T16:35:49.005Z,43.17
2023-04-16T16:38:15.573Z,43.23
2023-04-16T16:40:41.987Z,43.04
2023-04-16T16:43:08.367Z,43.29
2023-04-16T16:45:34.796Z,43.24
2023-04-16T16:48:03.403Z,43.12
2023-04-16T16:50:32.789Z,43.12
2023-04-16T16:53:02.118Z,43.17
2023-04-16T16:55:28.562Z,43.04
2023-04-16T16:57:55.072Z,43.05
2023-04-16T17:00:22.173Z,43.10
2023-04-16T17:02:51.142Z,42.99
2023-04-16T17:05:18.086Z,42.94
2023-04-16T17:07:44.596Z,42.89
2023-04-16T17:10:13.095Z,42.87
2023-04-16T17:12:39.773Z,42.85
2023-04-16T17:15:06.508Z,42.87
2023-04-16T17:17:33.048Z,42.91
2023-04-16T17:20:01.015Z,42.82
2023-04-16T17:22:27.628Z,42.75
2023-04-16T17:24:54.416Z,42.94
2023-04-16T17:27:21.084Z,42.96
2023-04-16T17:29:47.543Z,42.88
2023-04-16T17:32:14.055Z,42.93
2023-04-16T17:34:40.645Z,42.98
2023-04-16T17:37:07.058Z,42.88
2023-04-16T17:39:33.458Z,42.85
2023-04-16T17:42:01.296Z,42.81
2023-04-16T17:44:28.130Z,42.96
2023-04-16T17:46:54.572Z,42.74
2023-04-16T17:49:21.057Z,42.76
2023-04-16T17:51:47.512Z,42.74
2023-04-16T17:54:13.856Z,42.84
2023-04-16T17:56:40.360Z,42.97
2023-04-16T17:59:06.909Z,42.80
2023-04-16T18:01:33.477Z,42.83
2023-04-16T18:04:00.180Z,42.68
2023-04-16T18:06:27.681Z,42.77
2023-04-16T18:08:54.092Z,42.63
2023-04-16T18:11:21.116Z,42.66
2023-04-16T18:13:47.544Z,42.72
2023-04-16T18:16:14.991Z,42.70
2023-04-16T18:18:41.725Z,42.64
2023-04-16T18:21:08.163Z,42.65
2023-04-16T18:23:34.545Z,42.76
2023-04-16T18:26:01.094Z,42.65
2023-04-16T18:28:27.574Z,42.61
2023-04-16T18:30:54.036Z,42.55
2023-04-16T18:33:48.843Z,42.49
2023-04-16T18:36:07.308Z,42.63
2023-04-16T18:38:34.462Z,42.47
2023-04-16T18:41:01.960Z,42.48
2023-04-16T18:43:28.371Z,42.46
2023-04-16T18:45:54.823Z,42.33
2023-04-16T18:48:21.186Z,42.31
2023-04-16T18:50:47.653Z,42.31
2023-04-16T18:53:14.148Z,42.22
2023-04-16T18:55:40.813Z,42.31
2023-04-16T18:58:07.281Z,42.30
2023-04-16T19:00:33.831Z,42.26
2023-04-16T19:03:00.560Z,42.43
2023-04-16T19:05:27.039Z,42.27
2023-04-16T19:07:54.312Z,42.29
2023-04-16T19:10:20.739Z,42.44
2023-04-16T19:12:47.164Z,42.45
2023-04-16T19:15:14.780Z,42.51
2023-04-16T19:17:41.351Z,42.56
2023-04-16T19:20:11.242Z,42.59
2023-04-16T19:22:38.291Z,42.50
2023-04-16T19:25:05.278Z,42.42
2023-04-16T19:27:31.730Z,42.59
2023-04-16T19:29:58.132Z,42.50
2023-04-16T19:32:24.601Z,42.33
2023-04-16T19:34:51.118Z,42.17
2023-04-16T19:37:17.564Z,42.34
2023-04-16T19:39:44.062Z,42.22
2023-04-16T19:42:10.423Z,42.33
2023-04-16T19:44:36.976Z,42.09
2023-04-16T19:47:03.426Z,42.13
2023-04-16T19:49:29.858Z,42.28
2023-04-16T19:51:56.258Z,42.18
2023-04-16T19:54:22.650Z,42.11
2023-04-16T19:56:51.576Z,42.13
2023-04-16T19:59:17.979Z,41.98
2023-04-16T20:01:44.792Z,42.11
2023-04-16T20:04:11.942Z,42.07
2023-04-16T20:06:38.380Z,41.99
2023-04-16T20:09:04.997Z,41.96
2023-04-16T20:11:31.458Z,41.90
2023-04-16T20:14:00.330Z,41.82
2023-04-16T20:16:26.801Z,41.64
2023-04-16T20:18:54.453Z,41.80
2023-04-16T20:21:21.653Z,41.66
2023-04-16T20:23:48.229Z,41.80
2023-04-16T20:26:16.672Z,41.76
2023-04-16T20:28:43.085Z,41.65
2023-04-16T20:31:09.531Z,41.61
2023-04-16T20:33:35.984Z,41.61
2023-04-16T20:36:02.415Z,41.58
2023-04-16T20:38:32.222Z,41.49
2023-04-16T20:41:12.128Z,41.49
2023-04-16T20:43:40.999Z,41.46
2023-04-16T20:46:08.036Z,41.43
2023-04-16T20:48:34.737Z,41.56
2023-04-16T20:51:02.041Z,41.33
2023-04-16T20:53:28.555Z,41.50
2023-04-16T20:55:55.392Z,41.34
2023-04-16T20:58:22.000Z,41.29
2023-04-16T21:00:49.053Z,41.36
2023-04-16T21:03:15.793Z,41.27
2023-04-16T21:05:42.335Z,41.24
2023-04-16T21:08:08.755Z,41.41
2023-04-16T21:10:35.333Z,41.35
2023-04-16T21:13:01.960Z,41.51
2023-04-16T21:15:28.445Z,41.43
2023-04-16T21:17:54.955Z,41.29
2023-04-16T21:20:21.751Z,41.40
2023-04-16T21:22:48.270Z,41.36
2023-04-16T21:25:14.802Z,41.30
2023-04-16T21:27:41.193Z,41.27
2023-04-16T21:30:08.052Z,41.19
2023-04-16T21:32:34.480Z,41.19
2023-04-16T21:35:00.921Z,41.16
2023-04-16T21:37:27.345Z,41.20
2023-04-16T21:39:53.765Z,41.10
2023-04-16T21:42:20.392Z,41.10
2023-04-16T21:44:46.838Z,41.03
2023-04-16T21:47:13.257Z,40.95
2023-04-16T21:49:39.716Z,41.06
2023-04-16T21:52:06.144Z,41.03
2023-04-16T21:54:32.573Z,40.86
2023-04-16T21:56:59.374Z,40.86
2023-04-16T21:59:25.790Z,40.94
2023-04-16T22:01:52.406Z,40.98
2023-04-16T22:04:18.914Z,40.80
2023-04-16T22:06:46.296Z,40.80
2023-04-16T22:09:12.781Z,40.87
2023-04-16T22:11:39.326Z,40.70
2023-04-16T22:14:08.257Z,40.78
2023-04-16T22:16:35.998Z,41.46
2023-04-16T22:19:02.753Z,42.48
2023-04-16T22:21:29.182Z,42.84
2023-04-16T22:23:55.650Z,43.10
2023-04-16T22:26:21.999Z,43.19
2023-04-16T22:28:48.789Z,43.68
2023-04-16T22:31:15.255Z,43.77
2023-04-16T22:33:41.667Z,43.86
2023-04-16T22:36:08.182Z,43.60
2023-04-16T22:38:34.576Z,43.37
2023-04-16T22:41:01.082Z,43.46
2023-04-16T22:43:27.556Z,43.53
2023-04-16T22:46:04.715Z,43.32
2023-04-16T22:48:31.670Z,43.39
2023-04-16T22:50:58.205Z,43.73
2023-04-16T22:53:24.917Z,43.50
2023-04-16T22:55:51.440Z,43.66
2023-04-16T22:58:17.934Z,43.35
2023-04-16T23:00:44.598Z,43.44
2023-04-16T23:03:11.104Z,43.37
2023-04-16T23:05:37.521Z,43.43
2023-04-16T23:08:04.095Z,43.36
2023-04-16T23:10:30.503Z,43.36
2023-04-16T23:12:57.007Z,43.24
2023-04-16T23:15:23.409Z,43.11
2023-04-16T23:17:50.027Z,43.16
2023-04-16T23:20:16.677Z,43.08
2023-04-16T23:22:43.029Z,42.78
2023-04-16T23:25:09.807Z,42.82
2023-04-16T23:27:36.533Z,42.84
2023-04-16T23:30:03.571Z,42.98
2023-04-16T23:32:30.007Z,42.99
2023-04-16T23:34:56.502Z,43.09
2023-04-16T23:37:22.906Z,43.02
2023-04-16T23:39:49.339Z,42.94
2023-04-16T23:42:15.768Z,42.97
2023-04-16T23:44:42.248Z,42.88
2023-04-16T23:47:08.711Z,42.74
2023-04-16T23:49:35.228Z,42.57
2023-04-16T23:52:02.736Z,42.59
2023-04-16T23:54:29.212Z,42.52
2023-04-16T23:56:57.062Z,42.34
2023-04-16T23:59:24.316Z,42.58
